Mount Hope, KS (67108)

3:38 AM CDT on October 31, 2014 (GMT -0500)
Industrial Road | Change Station
CLOSE
Current Station
Personal Weather Station
Location: Halstead, KS
Elevation: 1407 ft
Nearby Weather Stations
Active Advisory: Freeze Warning

Elev 1407 ft 38.00 °N, 97.52 °W | Updated 35 seconds ago

Mostly Cloudy
Mostly Cloudy
44.6 °F
Feels Like 40 °F
N
8.4
Wind Variable Wind from North
Gusts 18.0 mph

Today
High -- | Low -- °F
--% Chance of Precip.
Yesterday
High -- | Low -- °F
Precip. -- in
7:55 AM 6:32 PM
First Quarter, 53% visible
Pressure 30.35 in
Visibility 10.0 miles
Clouds Mostly Cloudy 1700 ft
Windchill 40 °F
Dew Point 39 °F
Humidity 80%
Rainfall 0.00 in
Snow Depth Not available.
UV 0 out of 12
Pollen 2.40 out of 12
Air Quality Not available.
Flu Activity Not available.
METAR KHUT 310752Z AUTO 01012G20KT 10SM BKN017 07/02 A3037 RMK AO2 SLP276 T00670022

More Conditions Fewer Conditions

Pressure 30.35 in
Visibility 10.0 miles
Clouds Mostly Cloudy 1700 ft
Windchill 40 °F
Dew Point 39 °F
Humidity 80%
Rainfall 0.00 in
Snow Depth Not available.
UV 0 out of 12
Pollen 2.40 out of 12
Air Quality Not available.
Flu Activity Not available.
METAR KHUT 310752Z AUTO 01012G20KT 10SM BKN017 07/02 A3037 RMK AO2 SLP276 T00670022

More Conditions Fewer Conditions

10-Day Weather Forecast

Almanac

Astronomy

Oct. 31, 2014 Rise Set
Actual Time
Civil Twilight
Nautical Twilight
Astronomical Twilight
Moon
Length of Visible Light
Length of Day
Tomorrow will be .
, % of the Moon is Illuminated

Today's Extremes

State Highs State Lows

Community

WunderPhotos

Upload Photos

1,766,573 photos uploaded!

WunderBlogs® & News

Nearby

Air Quality

  Air Quality AQ Index Pollutant
Not available.

Snow Depth

Station Depth Elevation

Earthquake Activity

City Distance Mag. Time & Date
Minimum magnitude displayed is 2.5.

Coastal Water Temperatures

Place Temperature

Nearby Weather Stations